Time;durP1;ratioP1;P1;durP2;ratioP2;P2;SDS_P1;SDS_P2;PMS_P1;PMS_P2;Temp;Humidity;BMP_temperature;BMP_pressure;BME280_temperature;BME280_humidity;BME280_pressure;Samples;Min_cycle;Max_cycle;Signal;HPM_P1;HPM_P2
2023/09/23 00:00:26;;;;;;;14.73;13.07;;;;;;;;;;4968188;28;20443;-80
2023/09/23 00:02:53;;;;;;;16.33;13.87;;;;;;;;;;4955760;28;20451;-80
2023/09/23 00:05:20;;;;;;;13.20;11.90;;;;;;;;;;4969606;28;20523;-81
2023/09/23 00:07:46;;;;;;;14.23;12.93;;;;;;;;;;5017677;28;20446;-81
2023/09/23 00:10:12;;;;;;;12.37;11.30;;;;;;;;;;4975896;28;21023;-80
2023/09/23 00:12:40;;;;;;;12.23;10.90;;;;;;;;;;4974179;28;20814;-80
2023/09/23 00:15:10;;;;;;;13.70;12.30;;;;;;;;;;4975306;28;20453;-81
2023/09/23 00:17:37;;;;;;;14.23;12.70;;;;;;;;;;4974432;28;20877;-81
2023/09/23 00:20:06;;;;;;;13.33;12.03;;;;;;;;;;4981430;28;20448;-81
2023/09/23 00:22:34;;;;;;;13.90;12.50;;;;;;;;;;4992691;28;20446;-81
2023/09/23 00:25:00;;;;;;;14.40;12.33;;;;;;;;;;4975087;28;20441;-81
2023/09/23 00:27:27;;;;;;;14.93;13.53;;;;;;;;;;4977775;28;20471;-81
2023/09/23 00:29:53;;;;;;;15.00;13.40;;;;;;;;;;4982811;28;20442;-79
2023/09/23 00:32:23;;;;;;;14.70;12.50;;;;;;;;;;4973770;28;20485;-81
2023/09/23 00:34:49;;;;;;;13.03;11.67;;;;;;;;;;4960614;28;20476;-81
2023/09/23 00:37:16;;;;;;;14.70;13.20;;;;;;;;;;4956658;28;20904;-81
2023/09/23 00:39:42;;;;;;;15.00;13.60;;;;;;;;;;4975844;28;20442;-81
2023/09/23 00:42:10;;;;;;;14.27;12.93;;;;;;;;;;4954741;28;20537;-81
2023/09/23 00:44:39;;;;;;;12.47;11.33;;;;;;;;;;4971744;28;20951;-81
2023/09/23 00:47:06;;;;;;;15.23;13.70;;;;;;;;;;4975161;28;20473;-80
2023/09/23 00:49:35;;;;;;;16.10;13.83;;;;;;;;;;4975934;28;20486;-81
2023/09/23 00:52:04;;;;;;;23.63;14.17;;;;;;;;;;4976082;28;20454;-81
2023/09/23 00:54:31;;;;;;;20.33;15.90;;;;;;;;;;4971707;28;20443;-81
2023/09/23 00:56:58;;;;;;;14.80;13.40;;;;;;;;;;4969370;28;20450;-82
2023/09/23 00:59:25;;;;;;;19.67;14.53;;;;;;;;;;4966194;28;21067;-81
2023/09/23 01:01:51;;;;;;;18.70;14.17;;;;;;;;;;4964923;28;20482;-81
2023/09/23 01:04:17;;;;;;;23.60;16.33;;;;;;;;;;4977081;28;20445;-81
2023/09/23 01:06:45;;;;;;;17.70;15.33;;;;;;;;;;4972618;28;20450;-81
2023/09/23 01:09:17;;;;;;;18.50;16.70;;;;;;;;;;4973528;28;20818;-80
2023/09/23 01:11:45;;;;;;;16.40;14.03;;;;;;;;;;4974117;28;20466;-81
2023/09/23 01:14:11;;;;;;;17.83;14.23;;;;;;;;;;4971890;28;20453;-80
2023/09/23 01:16:38;;;;;;;17.30;15.40;;;;;;;;;;4972866;28;20482;-81
2023/09/23 01:19:09;;;;;;;16.93;15.13;;;;;;;;;;4975251;28;20805;-81
2023/09/23 01:21:35;;;;;;;17.27;15.57;;;;;;;;;;4974232;28;20474;-81
2023/09/23 01:24:03;;;;;;;18.90;15.60;;;;;;;;;;4985080;28;20848;-80
2023/09/23 01:26:30;;;;;;;18.90;15.33;;;;;;;;;;4977734;28;20986;-81
2023/09/23 01:28:56;;;;;;;18.07;15.57;;;;;;;;;;4976234;28;20468;-80
2023/09/23 01:31:26;;;;;;;15.63;14.20;;;;;;;;;;4962596;28;20472;-81
2023/09/23 01:33:56;;;;;;;15.50;14.00;;;;;;;;;;4957044;28;20460;-82
2023/09/23 01:36:22;;;;;;;16.13;14.40;;;;;;;;;;4988235;28;20477;-80
2023/09/23 01:38:49;;;;;;;19.73;14.30;;;;;;;;;;4983175;28;20451;-81
2023/09/23 01:41:17;;;;;;;17.87;15.00;;;;;;;;;;4973229;28;20458;-81
2023/09/23 01:43:43;;;;;;;17.93;16.03;;;;;;;;;;4972166;28;21074;-80
2023/09/23 01:46:10;;;;;;;17.43;15.73;;;;;;;;;;4981871;28;20444;-80
2023/09/23 01:48:38;;;;;;;16.10;14.07;;;;;;;;;;4990324;28;20475;-81
2023/09/23 01:51:06;;;;;;;17.33;15.53;;;;;;;;;;4975454;28;20473;-81
2023/09/23 01:53:32;;;;;;;17.43;14.43;;;;;;;;;;4969614;28;20472;-80
2023/09/23 01:56:00;;;;;;;17.30;15.43;;;;;;;;;;4959295;28;20483;-81
2023/09/23 01:58:28;;;;;;;16.30;14.47;;;;;;;;;;4980370;28;20445;-81
2023/09/23 02:00:55;;;;;;;19.53;16.83;;;;;;;;;;4990897;28;20445;-81
2023/09/23 02:03:22;;;;;;;19.80;14.40;;;;;;;;;;4956384;28;20467;-81
2023/09/23 02:05:49;;;;;;;15.97;14.27;;;;;;;;;;4966993;28;20977;-81
2023/09/23 02:08:17;;;;;;;18.60;15.50;;;;;;;;;;4954247;28;20460;-81
2023/09/23 02:10:44;;;;;;;17.93;15.37;;;;;;;;;;4978714;28;20442;-80
2023/09/23 02:13:10;;;;;;;16.33;14.63;;;;;;;;;;4970273;28;20468;-81
2023/09/23 02:15:39;;;;;;;15.77;14.17;;;;;;;;;;4979072;28;20438;-81
2023/09/23 02:18:06;;;;;;;18.47;15.83;;;;;;;;;;4973218;28;20479;-80
2023/09/23 02:20:34;;;;;;;14.37;12.80;;;;;;;;;;4975028;28;20968;-81
2023/09/23 02:23:00;;;;;;;16.10;14.40;;;;;;;;;;4976393;28;20475;-80
2023/09/23 02:25:27;;;;;;;17.03;13.43;;;;;;;;;;4969029;28;20463;-80
2023/09/23 02:27:54;;;;;;;16.77;14.87;;;;;;;;;;4977733;28;20450;-81
2023/09/23 02:30:21;;;;;;;16.33;14.63;;;;;;;;;;4975370;28;20998;-80
2023/09/23 02:32:49;;;;;;;16.87;15.07;;;;;;;;;;4968515;28;20442;-80
2023/09/23 02:35:17;;;;;;;16.13;14.40;;;;;;;;;;4959065;28;20451;-81
2023/09/23 02:37:45;;;;;;;19.17;14.47;;;;;;;;;;4974866;28;20464;-82
2023/09/23 02:40:13;;;;;;;16.73;14.23;;;;;;;;;;4979723;28;20840;-80
2023/09/23 02:42:41;;;;;;;15.40;13.77;;;;;;;;;;4971839;28;20478;-81
2023/09/23 02:45:09;;;;;;;16.43;13.83;;;;;;;;;;4977255;28;20446;-80
2023/09/23 02:47:36;;;;;;;21.77;16.50;;;;;;;;;;4974770;28;20498;-81
2023/09/23 02:50:04;;;;;;;18.47;14.57;;;;;;;;;;4968593;28;20470;-81
2023/09/23 02:52:30;;;;;;;16.80;15.03;;;;;;;;;;4966425;28;20506;-80
2023/09/23 02:54:56;;;;;;;21.77;15.40;;;;;;;;;;4977175;28;20434;-81
2023/09/23 02:57:23;;;;;;;15.57;13.80;;;;;;;;;;4972069;28;20466;-80
2023/09/23 02:59:56;;;;;;;16.80;15.00;;;;;;;;;;4973554;28;20453;-81
2023/09/23 03:02:27;;;;;;;17.70;14.53;;;;;;;;;;4956650;28;20472;-80
2023/09/23 03:04:58;;;;;;;17.00;14.83;;;;;;;;;;4985098;28;21045;-81
2023/09/23 03:07:33;;;;;;;17.80;14.40;;;;;;;;;;4954675;28;20450;-81
2023/09/23 03:10:01;;;;;;;21.03;15.50;;;;;;;;;;4975091;28;20455;-80
2023/09/23 03:12:27;;;;;;;18.13;14.63;;;;;;;;;;4974004;28;20545;-81
2023/09/23 03:14:54;;;;;;;16.47;14.20;;;;;;;;;;4964760;28;20458;-82
2023/09/23 03:17:22;;;;;;;19.17;14.87;;;;;;;;;;4993214;28;20464;-82
2023/09/23 03:19:50;;;;;;;17.40;14.70;;;;;;;;;;5043745;28;20426;-81
2023/09/23 03:22:19;;;;;;;17.10;14.13;;;;;;;;;;4974390;28;20486;-81
2023/09/23 03:24:48;;;;;;;16.43;13.63;;;;;;;;;;4974837;28;20472;-81
2023/09/23 03:27:16;;;;;;;15.70;13.53;;;;;;;;;;4975883;28;20497;-81
2023/09/23 03:29:43;;;;;;;18.47;14.10;;;;;;;;;;4955579;28;20523;-81
2023/09/23 03:32:09;;;;;;;17.30;14.33;;;;;;;;;;4962597;28;20514;-80
2023/09/23 03:34:37;;;;;;;17.30;13.63;;;;;;;;;;4977178;28;20470;-82
2023/09/23 03:37:04;;;;;;;17.93;13.80;;;;;;;;;;4974025;28;20483;-80
2023/09/23 03:39:30;;;;;;;14.70;13.20;;;;;;;;;;4974751;28;20546;-80
2023/09/23 03:41:58;;;;;;;16.17;14.47;;;;;;;;;;5049839;28;20479;-81
2023/09/23 03:44:24;;;;;;;15.77;12.53;;;;;;;;;;4978243;28;20478;-81
2023/09/23 03:46:52;;;;;;;15.20;13.43;;;;;;;;;;4971569;28;20475;-81
2023/09/23 03:49:18;;;;;;;15.20;12.90;;;;;;;;;;4976853;28;20471;-81
2023/09/23 03:51:45;;;;;;;14.70;13.20;;;;;;;;;;5001496;28;20478;-80
2023/09/23 03:54:13;;;;;;;17.40;14.20;;;;;;;;;;4969726;28;20459;-81
2023/09/23 03:56:40;;;;;;;17.13;13.80;;;;;;;;;;4973758;28;21032;-80
2023/09/23 03:59:09;;;;;;;16.37;13.20;;;;;;;;;;4971835;28;20451;-80
2023/09/23 04:01:36;;;;;;;17.67;14.47;;;;;;;;;;4961543;28;20486;-81
2023/09/23 04:04:03;;;;;;;19.03;14.50;;;;;;;;;;4988814;28;20516;-81
2023/09/23 04:06:30;;;;;;;15.40;13.83;;;;;;;;;;4973439;28;20478;-80
2023/09/23 04:08:58;;;;;;;16.90;14.70;;;;;;;;;;4978332;28;20438;-80
2023/09/23 04:11:26;;;;;;;16.13;14.30;;;;;;;;;;4977524;28;20493;-80
2023/09/23 04:13:53;;;;;;;15.10;13.60;;;;;;;;;;4973669;28;20468;-81
2023/09/23 04:16:20;;;;;;;16.67;14.90;;;;;;;;;;4975635;28;20474;-81
2023/09/23 04:18:47;;;;;;;22.40;14.23;;;;;;;;;;4971659;28;20959;-81
2023/09/23 04:21:14;;;;;;;15.90;12.53;;;;;;;;;;4978004;28;21015;-81
2023/09/23 04:23:40;;;;;;;16.50;11.50;;;;;;;;;;4964119;28;20897;-80
2023/09/23 04:26:08;;;;;;;13.23;11.93;;;;;;;;;;4975203;28;20467;-81
2023/09/23 04:28:35;;;;;;;13.53;11.60;;;;;;;;;;4963908;28;20568;-80
2023/09/23 04:31:02;;;;;;;13.40;12.00;;;;;;;;;;4974197;28;20463;-81
2023/09/23 04:33:30;;;;;;;13.73;11.77;;;;;;;;;;4977136;28;20909;-80
2023/09/23 04:35:58;;;;;;;13.40;11.67;;;;;;;;;;4978333;28;20549;-81
2023/09/23 04:38:25;;;;;;;13.80;12.40;;;;;;;;;;4989280;28;20491;-81
2023/09/23 04:40:52;;;;;;;12.70;10.60;;;;;;;;;;4956196;28;20459;-81
2023/09/23 04:43:19;;;;;;;13.43;10.93;;;;;;;;;;4979580;28;20470;-81
2023/09/23 04:45:46;;;;;;;11.60;10.40;;;;;;;;;;4974638;28;20977;-82
2023/09/23 04:48:14;;;;;;;12.63;10.10;;;;;;;;;;4990506;28;20538;-81
2023/09/23 04:50:41;;;;;;;10.77;9.17;;;;;;;;;;4983949;28;20464;-81
2023/09/23 04:53:08;;;;;;;10.83;9.30;;;;;;;;;;4972925;28;20454;-81
2023/09/23 04:55:34;;;;;;;10.67;9.57;;;;;;;;;;4964003;28;20464;-81
2023/09/23 04:58:00;;;;;;;10.20;8.40;;;;;;;;;;4971429;28;20495;-81
2023/09/23 05:00:32;;;;;;;11.43;8.17;;;;;;;;;;4984717;28;20461;-80
2023/09/23 05:02:58;;;;;;;10.70;8.80;;;;;;;;;;4976728;28;20834;-81
2023/09/23 05:05:25;;;;;;;9.63;8.63;;;;;;;;;;4977049;28;20470;-81
2023/09/23 05:07:53;;;;;;;8.23;7.30;;;;;;;;;;4980388;28;20495;-81
2023/09/23 05:10:19;;;;;;;10.67;9.10;;;;;;;;;;4978812;28;20524;-81
2023/09/23 05:12:46;;;;;;;9.50;6.87;;;;;;;;;;4978325;28;20516;-80
2023/09/23 05:15:14;;;;;;;8.17;7.30;;;;;;;;;;4976607;28;20471;-82
2023/09/23 05:17:43;;;;;;;8.30;7.13;;;;;;;;;;4976811;28;20490;-81
2023/09/23 05:20:14;;;;;;;10.60;6.77;;;;;;;;;;4988753;28;20438;-80
2023/09/23 05:22:40;;;;;;;7.97;6.40;;;;;;;;;;4978034;28;20478;-80
2023/09/23 05:25:11;;;;;;;7.90;7.13;;;;;;;;;;4978551;28;20442;-80
2023/09/23 05:27:38;;;;;;;8.20;7.17;;;;;;;;;;4975681;28;20475;-81
2023/09/23 05:30:08;;;;;;;8.00;7.20;;;;;;;;;;4969183;28;20467;-81
2023/09/23 05:32:35;;;;;;;8.47;7.67;;;;;;;;;;4959952;28;20458;-81
2023/09/23 05:35:02;;;;;;;8.90;7.50;;;;;;;;;;4980203;28;20437;-81
2023/09/23 05:37:28;;;;;;;11.53;7.80;;;;;;;;;;4977911;28;20479;-81
2023/09/23 05:39:54;;;;;;;7.63;6.83;;;;;;;;;;4959385;28;20517;-80
2023/09/23 05:42:24;;;;;;;10.00;7.70;;;;;;;;;;4960908;28;20459;-80
2023/09/23 05:44:50;;;;;;;8.63;7.37;;;;;;;;;;4976719;28;20468;-81
2023/09/23 05:47:16;;;;;;;8.20;7.13;;;;;;;;;;4977797;28;20482;-81
2023/09/23 05:49:43;;;;;;;9.07;8.03;;;;;;;;;;4980337;28;20964;-81
2023/09/23 05:52:10;;;;;;;9.40;8.23;;;;;;;;;;4975585;28;20487;-80
2023/09/23 05:54:37;;;;;;;9.17;6.87;;;;;;;;;;4966443;28;20490;-81
2023/09/23 05:57:03;;;;;;;10.60;8.47;;;;;;;;;;4974344;28;20466;-81
2023/09/23 05:59:31;;;;;;;8.97;7.63;;;;;;;;;;4964160;28;20469;-81
2023/09/23 06:01:59;;;;;;;10.37;7.90;;;;;;;;;;4978193;28;21026;-81
2023/09/23 06:04:25;;;;;;;9.57;6.73;;;;;;;;;;4977744;28;20464;-81
2023/09/23 06:06:54;;;;;;;9.33;7.47;;;;;;;;;;4977968;28;20442;-81
2023/09/23 06:09:21;;;;;;;7.73;6.93;;;;;;;;;;4979623;28;20471;-81
2023/09/23 06:11:48;;;;;;;10.60;7.07;;;;;;;;;;4978355;28;20562;-81
2023/09/23 06:14:14;;;;;;;7.13;6.43;;;;;;;;;;4969487;28;20565;-81
2023/09/23 06:16:44;;;;;;;11.97;7.33;;;;;;;;;;4970956;28;20541;-80
2023/09/23 06:19:10;;;;;;;9.30;8.13;;;;;;;;;;4960618;28;20989;-81
2023/09/23 06:21:37;;;;;;;9.83;7.43;;;;;;;;;;4976773;28;20468;-80
2023/09/23 06:24:03;;;;;;;13.10;8.10;;;;;;;;;;4961978;28;20468;-79
2023/09/23 06:26:30;;;;;;;8.40;7.13;;;;;;;;;;4972575;28;20457;-83
2023/09/23 06:28:57;;;;;;;9.27;7.17;;;;;;;;;;4982322;28;20828;-82
2023/09/23 06:31:24;;;;;;;11.90;7.23;;;;;;;;;;4984539;28;20475;-81
2023/09/23 06:33:51;;;;;;;13.77;8.40;;;;;;;;;;4962050;28;20463;-81
2023/09/23 06:36:18;;;;;;;8.83;7.13;;;;;;;;;;4977633;28;20471;-82
2023/09/23 06:38:44;;;;;;;8.77;6.77;;;;;;;;;;4958080;28;20458;-81
2023/09/23 06:41:11;;;;;;;9.63;8.47;;;;;;;;;;4974990;28;20463;-81
2023/09/23 06:43:37;;;;;;;10.00;8.10;;;;;;;;;;4958256;28;20446;-81
2023/09/23 06:46:04;;;;;;;13.20;9.17;;;;;;;;;;4975707;28;20802;-81
2023/09/23 06:48:31;;;;;;;10.57;9.50;;;;;;;;;;5053620;28;20470;-82
2023/09/23 06:51:00;;;;;;;15.73;11.40;;;;;;;;;;5036499;28;20845;-81
2023/09/23 06:53:27;;;;;;;14.03;11.10;;;;;;;;;;4970420;28;20452;-82
2023/09/23 06:55:53;;;;;;;14.83;11.77;;;;;;;;;;4967979;28;20994;-80
2023/09/23 06:58:19;;;;;;;15.37;13.00;;;;;;;;;;4972860;28;20502;-80
2023/09/23 07:00:46;;;;;;;19.33;13.60;;;;;;;;;;4981955;28;20464;-81
2023/09/23 07:03:12;;;;;;;18.00;13.73;;;;;;;;;;4975594;28;20475;-80
2023/09/23 07:05:39;;;;;;;16.90;12.67;;;;;;;;;;4979013;28;20454;-80
2023/09/23 07:08:07;;;;;;;24.53;14.27;;;;;;;;;;4977081;28;20467;-79
2023/09/23 07:10:37;;;;;;;19.50;13.67;;;;;;;;;;4960006;28;20450;-81
2023/09/23 07:13:04;;;;;;;17.90;14.30;;;;;;;;;;4972849;28;20548;-80
2023/09/23 07:15:31;;;;;;;17.60;14.57;;;;;;;;;;4955708;28;20467;-81
2023/09/23 07:17:58;;;;;;;18.10;14.40;;;;;;;;;;4974526;28;20483;-79
2023/09/23 07:20:24;;;;;;;17.17;14.10;;;;;;;;;;4958470;28;20482;-82
2023/09/23 07:22:50;;;;;;;18.97;14.83;;;;;;;;;;4971947;28;20495;-80
2023/09/23 07:25:18;;;;;;;19.20;14.03;;;;;;;;;;4973141;28;20965;-83
2023/09/23 07:27:46;;;;;;;22.27;15.07;;;;;;;;;;4975734;28;20487;-82
2023/09/23 07:30:14;;;;;;;18.27;15.10;;;;;;;;;;4980980;28;20491;-80
2023/09/23 07:32:40;;;;;;;17.37;13.30;;;;;;;;;;4984196;28;20483;-80
2023/09/23 07:35:08;;;;;;;17.00;14.03;;;;;;;;;;4979910;28;20995;-80
2023/09/23 07:37:35;;;;;;;18.30;13.57;;;;;;;;;;4982564;28;20483;-79
2023/09/23 07:40:03;;;;;;;17.23;13.13;;;;;;;;;;4979304;28;20471;-80
2023/09/23 07:42:31;;;;;;;18.17;14.10;;;;;;;;;;4976374;28;20474;-80
2023/09/23 07:44:57;;;;;;;18.00;13.80;;;;;;;;;;4977981;28;20468;-80
2023/09/23 07:47:23;;;;;;;18.17;14.13;;;;;;;;;;4978972;28;20849;-80
2023/09/23 07:49:50;;;;;;;17.00;13.80;;;;;;;;;;4976971;28;20823;-81
2023/09/23 07:52:17;;;;;;;17.10;14.40;;;;;;;;;;4974214;28;20852;-81
2023/09/23 07:54:43;;;;;;;16.07;12.80;;;;;;;;;;4973658;28;20438;-79
2023/09/23 07:57:10;;;;;;;16.10;13.37;;;;;;;;;;4962439;28;20507;-80
2023/09/23 07:59:38;;;;;;;15.17;13.20;;;;;;;;;;4964119;28;20515;-80
2023/09/23 08:02:04;;;;;;;15.60;13.60;;;;;;;;;;4963074;28;20468;-79
2023/09/23 08:04:30;;;;;;;16.70;14.30;;;;;;;;;;4956981;28;20986;-81
2023/09/23 08:06:57;;;;;;;17.00;14.20;;;;;;;;;;4960086;28;20471;-82
2023/09/23 08:09:23;;;;;;;18.00;14.20;;;;;;;;;;4976216;28;20449;-82
2023/09/23 08:11:49;;;;;;;19.70;17.63;;;;;;;;;;4978734;28;20453;-82
2023/09/23 08:14:16;;;;;;;21.33;16.87;;;;;;;;;;4978655;28;20849;-81
2023/09/23 08:16:43;;;;;;;22.10;19.67;;;;;;;;;;4978145;28;21001;-81
2023/09/23 08:19:10;;;;;;;27.70;22.10;;;;;;;;;;4961067;28;20857;-81
2023/09/23 08:21:36;;;;;;;26.87;23.63;;;;;;;;;;4981807;28;20460;-81
2023/09/23 08:24:03;;;;;;;31.10;25.60;;;;;;;;;;4966443;28;20459;-81
2023/09/23 08:26:30;;;;;;;30.13;24.10;;;;;;;;;;4961870;28;20519;-81
2023/09/23 08:28:57;;;;;;;33.47;28.13;;;;;;;;;;4979488;28;20452;-82
2023/09/23 08:31:24;;;;;;;36.10;28.93;;;;;;;;;;4979710;28;20468;-80
2023/09/23 08:33:51;;;;;;;40.87;29.57;;;;;;;;;;4976177;28;20465;-81
2023/09/23 08:36:18;;;;;;;34.80;27.87;;;;;;;;;;4979647;28;20471;-81
2023/09/23 08:38:45;;;;;;;36.80;27.90;;;;;;;;;;5031294;28;21065;-81
2023/09/23 08:41:12;;;;;;;30.40;26.03;;;;;;;;;;4977777;28;20541;-81
2023/09/23 08:43:42;;;;;;;31.23;25.00;;;;;;;;;;4979979;28;20504;-81
2023/09/23 08:46:09;;;;;;;33.07;26.20;;;;;;;;;;4976620;28;20457;-81
2023/09/23 08:48:36;;;;;;;30.87;25.63;;;;;;;;;;4961549;28;20453;-82
2023/09/23 08:51:06;;;;;;;29.77;24.50;;;;;;;;;;4968980;28;20984;-81
2023/09/23 08:53:33;;;;;;;33.43;25.93;;;;;;;;;;4974967;28;20475;-80
2023/09/23 08:56:00;;;;;;;30.43;22.30;;;;;;;;;;4992765;28;20548;-82
2023/09/23 08:58:27;;;;;;;29.53;20.50;;;;;;;;;;5070083;28;20457;-80
2023/09/23 09:00:54;;;;;;;25.43;19.80;;;;;;;;;;4966835;28;20471;-81
2023/09/23 09:03:21;;;;;;;25.87;20.67;;;;;;;;;;4977091;28;20536;-82
2023/09/23 09:05:47;;;;;;;24.17;18.80;;;;;;;;;;4976046;28;20459;-80
2023/09/23 09:08:16;;;;;;;23.50;17.73;;;;;;;;;;4971764;28;20430;-81
2023/09/23 09:10:42;;;;;;;20.93;17.23;;;;;;;;;;4984271;28;20446;-81
2023/09/23 09:13:09;;;;;;;25.90;18.30;;;;;;;;;;4955652;28;20451;-82
2023/09/23 09:15:37;;;;;;;20.43;17.20;;;;;;;;;;5025244;28;20519;-81
2023/09/23 09:18:04;;;;;;;22.03;18.00;;;;;;;;;;4973762;28;20454;-81
2023/09/23 09:20:30;;;;;;;23.67;19.03;;;;;;;;;;4978822;28;20434;-83
2023/09/23 09:22:57;;;;;;;23.30;17.00;;;;;;;;;;4977516;28;20482;-82
2023/09/23 09:25:24;;;;;;;22.37;16.00;;;;;;;;;;4975825;28;20478;-81
2023/09/23 09:27:52;;;;;;;20.70;17.63;;;;;;;;;;4975567;28;20475;-80
2023/09/23 09:30:19;;;;;;;24.67;19.33;;;;;;;;;;4977252;28;20448;-80
2023/09/23 09:32:45;;;;;;;22.10;16.87;;;;;;;;;;4976262;28;20532;-79
2023/09/23 09:35:13;;;;;;;21.53;18.57;;;;;;;;;;4969936;28;20447;-80
2023/09/23 09:37:42;;;;;;;22.77;18.67;;;;;;;;;;4965172;28;20553;-80
2023/09/23 09:40:10;;;;;;;28.57;16.93;;;;;;;;;;4976205;28;20469;-82
2023/09/23 09:42:39;;;;;;;22.90;18.47;;;;;;;;;;4962951;28;20530;-80
2023/09/23 09:45:08;;;;;;;22.90;17.63;;;;;;;;;;4960275;28;20463;-80
2023/09/23 09:47:35;;;;;;;21.47;17.30;;;;;;;;;;4958098;28;20446;-80
2023/09/23 09:50:04;;;;;;;25.03;18.30;;;;;;;;;;4958934;28;20479;-82
2023/09/23 09:52:31;;;;;;;23.90;17.87;;;;;;;;;;4960524;28;20559;-80
2023/09/23 09:55:00;;;;;;;23.43;17.70;;;;;;;;;;4991281;28;20785;-81
2023/09/23 09:57:28;;;;;;;24.03;19.33;;;;;;;;;;5075438;28;20462;-82
2023/09/23 10:00:00;;;;;;;21.40;16.90;;;;;;;;;;5076053;28;20452;-80
2023/09/23 10:02:27;;;;;;;19.87;16.10;;;;;;;;;;5054524;28;20521;-79
2023/09/23 10:04:55;;;;;;;24.17;18.20;;;;;;;;;;5003042;28;20979;-82
2023/09/23 10:07:22;;;;;;;21.70;17.50;;;;;;;;;;4977796;28;20450;-82
2023/09/23 10:09:55;;;;;;;20.70;16.70;;;;;;;;;;4965151;28;20471;-82
2023/09/23 10:12:25;;;;;;;25.20;17.40;;;;;;;;;;4959451;28;20500;-82
2023/09/23 10:14:56;;;;;;;17.00;15.20;;;;;;;;;;4975829;28;20450;-82
2023/09/23 10:17:31;;;;;;;19.70;16.67;;;;;;;;;;4979075;28;20490;-81
2023/09/23 10:19:58;;;;;;;19.07;14.20;;;;;;;;;;4975717;28;21002;-81
2023/09/23 10:22:24;;;;;;;23.23;15.33;;;;;;;;;;4977641;28;20872;-80
2023/09/23 10:25:00;;;;;;;21.30;17.17;;;;;;;;;;4969728;28;20449;-80
2023/09/23 10:27:26;;;;;;;21.23;16.80;;;;;;;;;;4960520;28;20442;-81
2023/09/23 10:29:53;;;;;;;22.60;15.73;;;;;;;;;;4946084;29;20501;-80
2023/09/23 10:32:19;;;;;;;21.30;16.63;;;;;;;;;;4945538;28;20442;-80
2023/09/23 10:34:50;;;;;;;17.83;15.00;;;;;;;;;;4975259;28;20449;-80
2023/09/23 10:37:29;;;;;;;17.93;14.97;;;;;;;;;;4978360;28;20460;-81
2023/09/23 10:39:55;;;;;;;17.83;15.17;;;;;;;;;;4976490;28;20501;-79
2023/09/23 10:42:22;;;;;;;16.93;15.10;;;;;;;;;;4982962;28;20454;-80
2023/09/23 10:44:48;;;;;;;18.50;15.20;;;;;;;;;;4979700;28;20489;-80
2023/09/23 10:47:16;;;;;;;17.70;15.33;;;;;;;;;;4964722;28;20447;-80
2023/09/23 10:49:42;;;;;;;18.10;16.10;;;;;;;;;;4974006;28;20498;-83
2023/09/23 10:52:11;;;;;;;16.10;14.50;;;;;;;;;;4982202;28;20445;-83
2023/09/23 10:54:37;;;;;;;17.77;14.80;;;;;;;;;;4963923;28;20483;-80
2023/09/23 10:57:04;;;;;;;13.83;12.43;;;;;;;;;;4942094;29;20507;-80
2023/09/23 10:59:31;;;;;;;15.10;13.13;;;;;;;;;;4959159;28;20492;-81
2023/09/23 11:01:58;;;;;;;16.20;13.90;;;;;;;;;;4984300;28;20445;-81
2023/09/23 11:04:24;;;;;;;16.13;13.47;;;;;;;;;;4965986;28;21003;-80
2023/09/23 11:06:53;;;;;;;15.00;12.57;;;;;;;;;;4977532;28;20472;-80
2023/09/23 11:09:21;;;;;;;13.03;11.57;;;;;;;;;;4959288;28;20839;-78
2023/09/23 11:11:47;;;;;;;13.87;12.40;;;;;;;;;;4978534;28;20467;-80
2023/09/23 11:14:15;;;;;;;12.60;11.40;;;;;;;;;;4959397;28;20442;-82
2023/09/23 11:16:42;;;;;;;13.50;9.87;;;;;;;;;;4982427;28;20482;-82
2023/09/23 11:19:08;;;;;;;15.03;11.07;;;;;;;;;;4979830;28;20997;-81
2023/09/23 11:21:41;;;;;;;12.30;10.77;;;;;;;;;;4975021;28;20442;-81
2023/09/23 11:24:08;;;;;;;15.97;12.77;;;;;;;;;;4977661;28;20483;-82
2023/09/23 11:26:38;;;;;;;15.87;11.70;;;;;;;;;;4977341;28;20503;-81
2023/09/23 11:29:05;;;;;;;12.77;11.13;;;;;;;;;;4975028;28;20483;-82
2023/09/23 11:31:31;;;;;;;10.53;9.53;;;;;;;;;;4982174;28;20450;-82
2023/09/23 11:33:58;;;;;;;15.20;12.17;;;;;;;;;;4991412;28;20467;-81
2023/09/23 11:36:24;;;;;;;11.60;10.30;;;;;;;;;;4964589;28;20465;-82
2023/09/23 11:38:51;;;;;;;10.63;9.63;;;;;;;;;;4960797;28;20917;-81
2023/09/23 11:41:17;;;;;;;13.57;11.03;;;;;;;;;;4972051;28;20483;-78
2023/09/23 11:43:49;;;;;;;10.60;8.80;;;;;;;;;;4958148;28;20478;-81
2023/09/23 11:46:19;;;;;;;8.83;7.70;;;;;;;;;;4975051;28;20472;-81
2023/09/23 11:48:48;;;;;;;9.33;8.43;;;;;;;;;;4972855;28;20423;-80
2023/09/23 11:51:14;;;;;;;10.27;8.57;;;;;;;;;;4974760;28;20763;-81
2023/09/23 11:53:41;;;;;;;9.93;7.57;;;;;;;;;;4972852;28;20991;-79
2023/09/23 11:56:07;;;;;;;8.10;7.30;;;;;;;;;;4968538;28;20503;-80
2023/09/23 11:58:34;;;;;;;8.77;7.33;;;;;;;;;;4977611;28;20462;-79
2023/09/23 12:01:03;;;;;;;8.80;7.93;;;;;;;;;;4975450;28;20467;-81
2023/09/23 12:03:29;;;;;;;7.90;7.10;;;;;;;;;;4976941;28;20467;-82
2023/09/23 12:05:56;;;;;;;7.00;6.30;;;;;;;;;;4958221;28;20462;-79
2023/09/23 12:08:22;;;;;;;7.60;6.43;;;;;;;;;;4978642;28;20464;-79
2023/09/23 12:10:50;;;;;;;7.70;6.90;;;;;;;;;;4976339;28;20806;-81
2023/09/23 12:13:18;;;;;;;7.03;6.33;;;;;;;;;;4958345;28;20471;-81
2023/09/23 12:15:44;;;;;;;7.70;6.80;;;;;;;;;;4972120;28;20519;-80
2023/09/23 12:18:12;;;;;;;7.10;6.27;;;;;;;;;;4973650;28;20464;-79
2023/09/23 12:20:38;;;;;;;8.40;7.60;;;;;;;;;;4975945;28;20495;-79
2023/09/23 12:23:05;;;;;;;11.27;7.80;;;;;;;;;;4975703;28;21180;-79
2023/09/23 12:25:32;;;;;;;8.97;7.10;;;;;;;;;;4978177;28;20997;-79
2023/09/23 12:27:58;;;;;;;7.17;6.07;;;;;;;;;;4971961;28;20464;-81
2023/09/23 12:30:25;;;;;;;9.60;6.40;;;;;;;;;;4980637;28;20452;-80
2023/09/23 12:32:51;;;;;;;7.80;6.20;;;;;;;;;;4989569;28;20974;-81
2023/09/23 12:35:19;;;;;;;7.53;6.30;;;;;;;;;;4979063;28;20467;-82
2023/09/23 12:37:46;;;;;;;7.70;6.60;;;;;;;;;;4979609;28;20474;-81
2023/09/23 12:40:12;;;;;;;9.47;6.50;;;;;;;;;;4979319;28;20514;-80
2023/09/23 12:42:39;;;;;;;8.00;6.00;;;;;;;;;;4971271;28;20819;-81
2023/09/23 12:45:08;;;;;;;7.80;7.00;;;;;;;;;;4973566;28;20474;-79
2023/09/23 12:47:35;;;;;;;9.13;6.17;;;;;;;;;;4954759;28;20885;-80
2023/09/23 12:50:01;;;;;;;7.53;6.30;;;;;;;;;;4952993;28;20523;-79
2023/09/23 12:52:29;;;;;;;8.90;5.67;;;;;;;;;;4962032;28;20492;-80
2023/09/23 12:54:55;;;;;;;6.07;5.03;;;;;;;;;;4965924;28;20450;-80
2023/09/23 12:57:22;;;;;;;5.90;5.33;;;;;;;;;;4971189;28;20463;-80
2023/09/23 12:59:48;;;;;;;6.57;5.97;;;;;;;;;;4954143;28;20490;-79
2023/09/23 13:02:15;;;;;;;8.97;5.10;;;;;;;;;;4974781;28;20479;-80
2023/09/23 13:04:41;;;;;;;6.47;4.53;;;;;;;;;;4971759;28;20459;-80
2023/09/23 13:07:08;;;;;;;5.60;4.37;;;;;;;;;;4972002;28;20467;-79
2023/09/23 13:09:35;;;;;;;6.50;4.93;;;;;;;;;;4956550;28;20468;-80
2023/09/23 13:12:04;;;;;;;8.07;5.00;;;;;;;;;;4951173;28;20514;-80
2023/09/23 13:14:30;;;;;;;5.10;4.60;;;;;;;;;;4949986;28;20559;-80
2023/09/23 13:16:56;;;;;;;4.90;4.40;;;;;;;;;;4954730;28;20475;-80
2023/09/23 13:19:23;;;;;;;5.90;3.47;;;;;;;;;;4959531;28;20463;-81
2023/09/23 13:21:49;;;;;;;5.80;5.20;;;;;;;;;;4977982;28;21023;-80
2023/09/23 13:24:15;;;;;;;10.23;5.10;;;;;;;;;;4978768;28;20998;-80
2023/09/23 13:26:44;;;;;;;4.80;4.20;;;;;;;;;;4986786;28;20459;-80
2023/09/23 13:29:10;;;;;;;7.90;4.77;;;;;;;;;;5034477;28;20876;-79
2023/09/23 13:31:37;;;;;;;7.47;4.77;;;;;;;;;;4992421;28;20481;-82
2023/09/23 13:34:05;;;;;;;7.30;4.70;;;;;;;;;;4967282;28;20968;-80
2023/09/23 13:36:32;;;;;;;4.70;4.30;;;;;;;;;;4997231;28;20478;-79
2023/09/23 13:38:59;;;;;;;5.33;4.83;;;;;;;;;;4992652;28;20570;-79
2023/09/23 13:41:25;;;;;;;7.63;5.80;;;;;;;;;;4977793;28;20997;-82
2023/09/23 13:43:53;;;;;;;5.60;5.20;;;;;;;;;;4980766;28;20459;-79
2023/09/23 13:46:19;;;;;;;5.10;4.70;;;;;;;;;;4976029;28;20479;-79
2023/09/23 13:48:45;;;;;;;5.80;5.20;;;;;;;;;;4980661;28;20995;-80
2023/09/23 13:51:12;;;;;;;5.73;4.10;;;;;;;;;;4958183;28;20483;-80
2023/09/23 13:53:38;;;;;;;6.60;4.00;;;;;;;;;;4976451;28;20468;-79
2023/09/23 13:56:06;;;;;;;6.03;3.90;;;;;;;;;;4977160;28;20471;-80
2023/09/23 13:58:33;;;;;;;5.70;3.90;;;;;;;;;;4981572;28;20892;-79
2023/09/23 14:01:00;;;;;;;4.40;4.00;;;;;;;;;;4962938;28;20476;-80
2023/09/23 14:03:27;;;;;;;8.40;4.07;;;;;;;;;;4978852;28;20972;-80
2023/09/23 14:05:53;;;;;;;4.23;3.80;;;;;;;;;;4974661;28;20981;-79
2023/09/23 14:08:20;;;;;;;5.60;4.50;;;;;;;;;;4976269;28;20891;-79
2023/09/23 14:10:47;;;;;;;4.17;3.87;;;;;;;;;;4976069;28;20479;-80
2023/09/23 14:13:13;;;;;;;5.87;3.77;;;;;;;;;;4968116;28;20480;-80
2023/09/23 14:15:39;;;;;;;6.97;3.73;;;;;;;;;;4955461;28;20447;-79
2023/09/23 14:18:08;;;;;;;7.67;4.73;;;;;;;;;;4965893;28;20452;-80
2023/09/23 14:20:34;;;;;;;4.40;4.00;;;;;;;;;;4977628;28;21015;-80
2023/09/23 14:23:01;;;;;;;5.43;3.70;;;;;;;;;;4976777;28;20814;-79